sensor_id;sensor_type;location;lat;lon;timestamp;pressure;altitude;pressure_sealevel;temperature;humidity
38303;BME280;24103;42.454;27.400;2023-05-19T00:00:51;100356.16;;;15.95;100.00
38303;BME280;24103;42.454;27.400;2023-05-19T00:03:17;100360.56;;;15.84;100.00
38303;BME280;24103;42.454;27.400;2023-05-19T00:05:47;100361.78;;;15.80;100.00
38303;BME280;24103;42.454;27.400;2023-05-19T00:08:15;100370.41;;;15.73;100.00
38303;BME280;24103;42.454;27.400;2023-05-19T00:10:41;100366.16;;;15.70;100.00
38303;BME280;24103;42.454;27.400;2023-05-19T00:13:07;100369.06;;;15.67;100.00
38303;BME280;24103;42.454;27.400;2023-05-19T00:15:33;100375.38;;;15.66;100.00
38303;BME280;24103;42.454;27.400;2023-05-19T00:17:59;100386.41;;;15.61;100.00
38303;BME280;24103;42.454;27.400;2023-05-19T00:20:24;100386.19;;;15.53;100.00
38303;BME280;24103;42.454;27.400;2023-05-19T00:22:50;100387.78;;;15.44;100.00
38303;BME280;24103;42.454;27.400;2023-05-19T00:25:15;100393.34;;;15.41;100.00
38303;BME280;24103;42.454;27.400;2023-05-19T00:27:41;100393.97;;;15.34;100.00
38303;BME280;24103;42.454;27.400;2023-05-19T00:30:07;100394.09;;;15.32;100.00
38303;BME280;24103;42.454;27.400;2023-05-19T00:32:32;100400.00;;;15.24;100.00
38303;BME280;24103;42.454;27.400;2023-05-19T00:34:58;100405.22;;;15.37;100.00
38303;BME280;24103;42.454;27.400;2023-05-19T00:37:23;100412.84;;;15.42;100.00
38303;BME280;24103;42.454;27.400;2023-05-19T00:39:49;100413.66;;;15.42;100.00
38303;BME280;24103;42.454;27.400;2023-05-19T00:42:14;100415.25;;;15.34;100.00
38303;BME280;24103;42.454;27.400;2023-05-19T00:44:40;100420.81;;;15.30;100.00
38303;BME280;24103;42.454;27.400;2023-05-19T00:47:07;100419.75;;;15.33;100.00
38303;BME280;24103;42.454;27.400;2023-05-19T00:49:32;100415.88;;;15.26;100.00
38303;BME280;24103;42.454;27.400;2023-05-19T00:52:00;100416.00;;;15.24;100.00
38303;BME280;24103;42.454;27.400;2023-05-19T00:54:26;100424.00;;;15.13;100.00
38303;BME280;24103;42.454;27.400;2023-05-19T00:56:53;100415.16;;;15.01;100.00
38303;BME280;24103;42.454;27.400;2023-05-19T00:59:19;100429.91;;;14.94;100.00
38303;BME280;24103;42.454;27.400;2023-05-19T01:01:47;100430.25;;;14.89;100.00
38303;BME280;24103;42.454;27.400;2023-05-19T01:04:22;100424.69;;;14.81;100.00
38303;BME280;24103;42.454;27.400;2023-05-19T01:06:50;100423.97;;;14.79;100.00
38303;BME280;24103;42.454;27.400;2023-05-19T01:09:22;100428.34;;;14.80;100.00
38303;BME280;24103;42.454;27.400;2023-05-19T01:11:49;100424.81;;;14.68;100.00
38303;BME280;24103;42.454;27.400;2023-05-19T01:14:15;100434.63;;;14.55;100.00
38303;BME280;24103;42.454;27.400;2023-05-19T01:17:18;100437.78;;;14.49;100.00
38303;BME280;24103;42.454;27.400;2023-05-19T01:25:29;100436.53;;;14.42;100.00
38303;BME280;24103;42.454;27.400;2023-05-19T01:28:19;100433.16;;;14.40;100.00
38303;BME280;24103;42.454;27.400;2023-05-19T01:30:53;100441.03;;;14.41;100.00
38303;BME280;24103;42.454;27.400;2023-05-19T01:33:21;100434.13;;;14.38;100.00
38303;BME280;24103;42.454;27.400;2023-05-19T01:35:48;100441.13;;;14.40;100.00
38303;BME280;24103;42.454;27.400;2023-05-19T01:38:16;100440.06;;;14.42;100.00
38303;BME280;24103;42.454;27.400;2023-05-19T01:40:42;100445.38;;;14.42;100.00
38303;BME280;24103;42.454;27.400;2023-05-19T01:43:15;100447.19;;;14.42;100.00
38303;BME280;24103;42.454;27.400;2023-05-19T01:45:41;100447.19;;;14.42;100.00
38303;BME280;24103;42.454;27.400;2023-05-19T01:48:08;100445.63;;;14.39;100.00
38303;BME280;24103;42.454;27.400;2023-05-19T01:50:33;100447.56;;;14.37;100.00
38303;BME280;24103;42.454;27.400;2023-05-19T01:52:59;100448.34;;;14.26;100.00
38303;BME280;24103;42.454;27.400;2023-05-19T01:55:25;100443.09;;;14.13;100.00
38303;BME280;24103;42.454;27.400;2023-05-19T02:00:37;100445.41;;;13.94;100.00
38303;BME280;24103;42.454;27.400;2023-05-19T02:05:51;100451.75;;;13.80;100.00
38303;BME280;24103;42.454;27.400;2023-05-19T02:10:59;100450.22;;;13.64;100.00
38303;BME280;24103;42.454;27.400;2023-05-19T02:13:30;100455.22;;;13.56;100.00
38303;BME280;24103;42.454;27.400;2023-05-19T02:16:03;100457.47;;;13.50;100.00
38303;BME280;24103;42.454;27.400;2023-05-19T02:18:31;100466.50;;;13.47;100.00
38303;BME280;24103;42.454;27.400;2023-05-19T02:20:57;100459.47;;;13.46;100.00
38303;BME280;24103;42.454;27.400;2023-05-19T02:23:23;100465.44;;;13.50;100.00
38303;BME280;24103;42.454;27.400;2023-05-19T02:25:48;100470.59;;;13.51;100.00
38303;BME280;24103;42.454;27.400;2023-05-19T02:28:14;100457.19;;;13.41;100.00
38303;BME280;24103;42.454;27.400;2023-05-19T02:30:40;100465.66;;;13.34;100.00
38303;BME280;24103;42.454;27.400;2023-05-19T02:33:05;100463.19;;;13.31;100.00
38303;BME280;24103;42.454;27.400;2023-05-19T02:35:31;100467.16;;;13.25;100.00
38303;BME280;24103;42.454;27.400;2023-05-19T02:37:58;100477.22;;;13.20;100.00
38303;BME280;24103;42.454;27.400;2023-05-19T02:40:23;100470.22;;;13.19;100.00
38303;BME280;24103;42.454;27.400;2023-05-19T02:42:48;100477.13;;;13.08;100.00
38303;BME280;24103;42.454;27.400;2023-05-19T02:45:14;100487.53;;;13.12;100.00
38303;BME280;24103;42.454;27.400;2023-05-19T02:47:39;100484.75;;;13.13;100.00
38303;BME280;24103;42.454;27.400;2023-05-19T02:50:06;100488.47;;;13.11;100.00
38303;BME280;24103;42.454;27.400;2023-05-19T02:52:32;100481.66;;;13.06;100.00
38303;BME280;24103;42.454;27.400;2023-05-19T02:54:57;100492.63;;;13.02;100.00
38303;BME280;24103;42.454;27.400;2023-05-19T02:57:23;100492.69;;;13.13;100.00
38303;BME280;24103;42.454;27.400;2023-05-19T02:59:48;100486.47;;;13.14;100.00
38303;BME280;24103;42.454;27.400;2023-05-19T03:02:14;100484.53;;;13.16;100.00
38303;BME280;24103;42.454;27.400;2023-05-19T03:04:39;100489.84;;;13.16;100.00
38303;BME280;24103;42.454;27.400;2023-05-19T03:07:08;100491.22;;;13.09;100.00
38303;BME280;24103;42.454;27.400;2023-05-19T03:09:38;100484.88;;;13.12;100.00
38303;BME280;24103;42.454;27.400;2023-05-19T03:12:04;100487.09;;;13.18;100.00
38303;BME280;24103;42.454;27.400;2023-05-19T03:14:32;100489.09;;;13.27;100.00
38303;BME280;24103;42.454;27.400;2023-05-19T03:16:58;100495.25;;;13.53;100.00
38303;BME280;24103;42.454;27.400;2023-05-19T03:19:24;100497.63;;;13.82;100.00
38303;BME280;24103;42.454;27.400;2023-05-19T03:21:50;100494.84;;;14.21;100.00
38303;BME280;24103;42.454;27.400;2023-05-19T03:24:15;100492.81;;;14.60;100.00
38303;BME280;24103;42.454;27.400;2023-05-19T03:26:41;100492.31;;;15.13;100.00
38303;BME280;24103;42.454;27.400;2023-05-19T03:29:07;100497.19;;;15.53;100.00
38303;BME280;24103;42.454;27.400;2023-05-19T03:31:32;100496.75;;;16.14;100.00
38303;BME280;24103;42.454;27.400;2023-05-19T03:33:58;100494.22;;;16.66;100.00
38303;BME280;24103;42.454;27.400;2023-05-19T03:36:23;100495.22;;;17.38;100.00
38303;BME280;24103;42.454;27.400;2023-05-19T03:38:50;100485.72;;;17.95;100.00
38303;BME280;24103;42.454;27.400;2023-05-19T03:41:15;100490.81;;;18.57;100.00
38303;BME280;24103;42.454;27.400;2023-05-19T03:43:41;100483.66;;;19.14;100.00
38303;BME280;24103;42.454;27.400;2023-05-19T03:46:06;100470.47;;;19.68;100.00
38303;BME280;24103;42.454;27.400;2023-05-19T03:48:31;100473.34;;;20.39;94.31
38303;BME280;24103;42.454;27.400;2023-05-19T03:50:57;100454.13;;;20.88;87.86
38303;BME280;24103;42.454;27.400;2023-05-19T03:53:23;100455.22;;;21.38;81.98
38303;BME280;24103;42.454;27.400;2023-05-19T03:55:48;100445.00;;;21.92;78.34
38303;BME280;24103;42.454;27.400;2023-05-19T03:58:14;100444.53;;;22.79;72.99
38303;BME280;24103;42.454;27.400;2023-05-19T04:00:41;100439.97;;;23.75;65.71
38303;BME280;24103;42.454;27.400;2023-05-19T04:03:06;100422.63;;;24.47;58.63
38303;BME280;24103;42.454;27.400;2023-05-19T04:05:32;100423.44;;;25.15;55.45
38303;BME280;24103;42.454;27.400;2023-05-19T04:07:58;100410.53;;;25.99;52.31
38303;BME280;24103;42.454;27.400;2023-05-19T04:10:24;100396.31;;;26.68;49.07
38303;BME280;24103;42.454;27.400;2023-05-19T04:12:49;100390.34;;;27.21;47.25
38303;BME280;24103;42.454;27.400;2023-05-19T04:15:14;100391.16;;;27.76;46.10
38303;BME280;24103;42.454;27.400;2023-05-19T04:17:40;100375.19;;;28.15;43.21
38303;BME280;24103;42.454;27.400;2023-05-19T04:20:06;100377.06;;;28.35;42.62
38303;BME280;24103;42.454;27.400;2023-05-19T04:22:32;100374.75;;;28.25;42.14
38303;BME280;24103;42.454;27.400;2023-05-19T04:24:58;100384.78;;;28.18;42.63
38303;BME280;24103;42.454;27.400;2023-05-19T04:27:24;100390.00;;;28.06;42.25
38303;BME280;24103;42.454;27.400;2023-05-19T04:29:52;100385.63;;;28.18;42.36
38303;BME280;24103;42.454;27.400;2023-05-19T04:32:19;100377.25;;;28.53;41.77
38303;BME280;24103;42.454;27.400;2023-05-19T04:34:44;100380.44;;;29.09;40.06
38303;BME280;24103;42.454;27.400;2023-05-19T04:37:13;100380.91;;;28.99;39.32
38303;BME280;24103;42.454;27.400;2023-05-19T04:39:41;100392.66;;;28.93;40.03
38303;BME280;24103;42.454;27.400;2023-05-19T04:42:10;100385.88;;;29.09;39.28
38303;BME280;24103;42.454;27.400;2023-05-19T04:44:37;100391.47;;;28.62;39.98
38303;BME280;24103;42.454;27.400;2023-05-19T04:47:05;100399.38;;;27.97;40.37
38303;BME280;24103;42.454;27.400;2023-05-19T04:49:33;100414.84;;;27.34;41.74
38303;BME280;24103;42.454;27.400;2023-05-19T04:52:04;100423.91;;;27.13;42.69
38303;BME280;24103;42.454;27.400;2023-05-19T04:54:30;100423.47;;;27.10;43.44
38303;BME280;24103;42.454;27.400;2023-05-19T04:56:56;100429.09;;;27.08;43.42
38303;BME280;24103;42.454;27.400;2023-05-19T04:59:21;100424.50;;;27.09;43.32
38303;BME280;24103;42.454;27.400;2023-05-19T05:01:47;100431.53;;;26.96;43.03
38303;BME280;24103;42.454;27.400;2023-05-19T05:04:12;100433.09;;;26.84;43.84
38303;BME280;24103;42.454;27.400;2023-05-19T05:06:38;100434.13;;;26.76;44.13
38303;BME280;24103;42.454;27.400;2023-05-19T05:09:04;100442.31;;;27.25;43.65
38303;BME280;24103;42.454;27.400;2023-05-19T05:11:30;100434.81;;;27.75;42.98
38303;BME280;24103;42.454;27.400;2023-05-19T05:13:56;100431.00;;;28.64;41.71
38303;BME280;24103;42.454;27.400;2023-05-19T05:16:25;100424.63;;;29.17;39.95
38303;BME280;24103;42.454;27.400;2023-05-19T05:18:51;100426.88;;;29.34;39.53
38303;BME280;24103;42.454;27.400;2023-05-19T05:21:16;100416.88;;;29.08;39.59
38303;BME280;24103;42.454;27.400;2023-05-19T05:23:42;100410.72;;;29.39;39.24
38303;BME280;24103;42.454;27.400;2023-05-19T05:26:16;100421.13;;;29.94;37.95
38303;BME280;24103;42.454;27.400;2023-05-19T05:28:43;100404.47;;;31.03;37.31
38303;BME280;24103;42.454;27.400;2023-05-19T05:31:08;100396.44;;;32.88;34.66
38303;BME280;24103;42.454;27.400;2023-05-19T05:33:34;100377.00;;;34.17;31.94
38303;BME280;24103;42.454;27.400;2023-05-19T05:35:59;100371.19;;;35.58;30.05
38303;BME280;24103;42.454;27.400;2023-05-19T05:38:25;100367.66;;;37.23;28.36
38303;BME280;24103;42.454;27.400;2023-05-19T05:40:50;100357.84;;;38.35;26.14
38303;BME280;24103;42.454;27.400;2023-05-19T05:43:16;100357.25;;;38.53;25.58
38303;BME280;24103;42.454;27.400;2023-05-19T05:45:41;100367.06;;;38.96;25.23
38303;BME280;24103;42.454;27.400;2023-05-19T05:48:07;100353.22;;;39.01;24.65
38303;BME280;24103;42.454;27.400;2023-05-19T05:50:33;100366.97;;;39.66;24.44
38303;BME280;24103;42.454;27.400;2023-05-19T05:53:00;100356.25;;;40.23;23.57
38303;BME280;24103;42.454;27.400;2023-05-19T05:55:26;100351.94;;;40.12;22.72
38303;BME280;24103;42.454;27.400;2023-05-19T05:57:51;100349.94;;;39.49;21.63
38303;BME280;24103;42.454;27.400;2023-05-19T06:00:17;100362.84;;;38.17;22.81
38303;BME280;24103;42.454;27.400;2023-05-19T06:02:48;100373.50;;;35.98;25.01
38303;BME280;24103;42.454;27.400;2023-05-19T06:05:14;100381.19;;;35.20;26.07
38303;BME280;24103;42.454;27.400;2023-05-19T06:07:40;100386.56;;;36.99;24.99
38303;BME280;24103;42.454;27.400;2023-05-19T06:10:07;100381.28;;;38.32;23.96
38303;BME280;24103;42.454;27.400;2023-05-19T06:12:33;100385.72;;;38.08;22.80
38303;BME280;24103;42.454;27.400;2023-05-19T06:15:00;100385.97;;;38.47;23.20
38303;BME280;24103;42.454;27.400;2023-05-19T06:17:25;100382.28;;;38.88;22.67
38303;BME280;24103;42.454;27.400;2023-05-19T06:19:51;100391.66;;;37.28;23.33
38303;BME280;24103;42.454;27.400;2023-05-19T06:22:16;100405.28;;;35.35;25.29
38303;BME280;24103;42.454;27.400;2023-05-19T06:24:42;100420.00;;;34.16;27.14
38303;BME280;24103;42.454;27.400;2023-05-19T06:27:07;100424.19;;;34.19;27.14
38303;BME280;24103;42.454;27.400;2023-05-19T06:29:33;100433.56;;;34.06;27.83
38303;BME280;24103;42.454;27.400;2023-05-19T06:31:58;100433.47;;;34.69;27.21
38303;BME280;24103;42.454;27.400;2023-05-19T06:34:23;100432.19;;;34.38;27.20
38303;BME280;24103;42.454;27.400;2023-05-19T06:36:49;100428.72;;;34.98;26.46
38303;BME280;24103;42.454;27.400;2023-05-19T06:39:15;100438.44;;;33.47;26.90
38303;BME280;24103;42.454;27.400;2023-05-19T06:41:40;100450.53;;;32.27;29.45
38303;BME280;24103;42.454;27.400;2023-05-19T06:44:06;100444.25;;;32.50;28.98
38303;BME280;24103;42.454;27.400;2023-05-19T06:46:35;100454.47;;;33.02;29.20
38303;BME280;24103;42.454;27.400;2023-05-19T06:49:00;100459.94;;;33.26;28.52
38303;BME280;24103;42.454;27.400;2023-05-19T06:51:26;100460.50;;;31.91;29.63
38303;BME280;24103;42.454;27.400;2023-05-19T06:53:51;100474.94;;;30.30;31.58
38303;BME280;24103;42.454;27.400;2023-05-19T06:56:17;100482.22;;;28.81;33.76
38303;BME280;24103;42.454;27.400;2023-05-19T06:58:44;100493.38;;;29.51;33.33
38303;BME280;24103;42.454;27.400;2023-05-19T07:01:09;100490.56;;;29.71;32.79
38303;BME280;24103;42.454;27.400;2023-05-19T07:03:35;100490.56;;;29.78;32.77
38303;BME280;24103;42.454;27.400;2023-05-19T07:06:01;100497.91;;;29.77;32.60
38303;BME280;24103;42.454;27.400;2023-05-19T07:08:26;100500.16;;;29.29;33.17
38303;BME280;24103;42.454;27.400;2023-05-19T07:10:52;100504.31;;;28.38;34.50
38303;BME280;24103;42.454;27.400;2023-05-19T07:13:19;100508.09;;;28.43;34.83
38303;BME280;24103;42.454;27.400;2023-05-19T07:15:45;100508.50;;;29.07;34.36
38303;BME280;24103;42.454;27.400;2023-05-19T07:18:10;100511.44;;;28.39;35.27
38303;BME280;24103;42.454;27.400;2023-05-19T07:20:35;100502.16;;;29.47;34.04
38303;BME280;24103;42.454;27.400;2023-05-19T07:23:01;100496.31;;;30.33;32.08
38303;BME280;24103;42.454;27.400;2023-05-19T07:25:29;100501.88;;;28.83;32.88
38303;BME280;24103;42.454;27.400;2023-05-19T07:27:55;100503.31;;;28.59;33.40
38303;BME280;24103;42.454;27.400;2023-05-19T07:30:21;100513.16;;;27.91;35.22
38303;BME280;24103;42.454;27.400;2023-05-19T07:32:46;100511.13;;;29.61;33.58
38303;BME280;24103;42.454;27.400;2023-05-19T07:35:12;100492.41;;;31.42;31.12
38303;BME280;24103;42.454;27.400;2023-05-19T07:37:37;100485.78;;;33.59;27.46
38303;BME280;24103;42.454;27.400;2023-05-19T07:40:03;100486.25;;;31.10;30.00
38303;BME280;24103;42.454;27.400;2023-05-19T07:42:30;100500.75;;;29.37;32.80
38303;BME280;24103;42.454;27.400;2023-05-19T07:44:56;100519.41;;;27.79;35.27
38303;BME280;24103;42.454;27.400;2023-05-19T07:47:21;100518.72;;;27.70;35.62
38303;BME280;24103;42.454;27.400;2023-05-19T07:49:47;100520.69;;;28.78;35.00
38303;BME280;24103;42.454;27.400;2023-05-19T07:52:13;100530.72;;;28.77;34.26
38303;BME280;24103;42.454;27.400;2023-05-19T07:54:38;100530.97;;;27.94;34.25
38303;BME280;24103;42.454;27.400;2023-05-19T07:57:04;100527.19;;;27.88;35.13
38303;BME280;24103;42.454;27.400;2023-05-19T07:59:30;100534.94;;;26.93;36.85
38303;BME280;24103;42.454;27.400;2023-05-19T08:01:55;100536.06;;;26.56;38.23
38303;BME280;24103;42.454;27.400;2023-05-19T08:04:21;100535.13;;;27.48;37.13
38303;BME280;24103;42.454;27.400;2023-05-19T08:06:46;100530.06;;;29.42;35.10
38303;BME280;24103;42.454;27.400;2023-05-19T08:09:12;100519.03;;;29.82;33.21
38303;BME280;24103;42.454;27.400;2023-05-19T08:11:37;100520.66;;;29.25;33.26
38303;BME280;24103;42.454;27.400;2023-05-19T08:14:03;100521.09;;;28.95;34.78
38303;BME280;24103;42.454;27.400;2023-05-19T08:16:28;100524.66;;;28.82;33.63
38303;BME280;24103;42.454;27.400;2023-05-19T08:18:54;100524.22;;;28.98;33.43
38303;BME280;24103;42.454;27.400;2023-05-19T08:21:20;100528.22;;;29.02;33.24
38303;BME280;24103;42.454;27.400;2023-05-19T08:23:46;100528.19;;;29.29;32.82
38303;BME280;24103;42.454;27.400;2023-05-19T08:26:11;100526.16;;;29.70;32.53
38303;BME280;24103;42.454;27.400;2023-05-19T08:28:37;100517.78;;;29.71;32.78
38303;BME280;24103;42.454;27.400;2023-05-19T08:31:03;100527.34;;;29.35;32.48
38303;BME280;24103;42.454;27.400;2023-05-19T08:33:28;100527.53;;;28.27;34.20
38303;BME280;24103;42.454;27.400;2023-05-19T08:35:57;100529.44;;;28.46;34.44
38303;BME280;24103;42.454;27.400;2023-05-19T08:38:23;100536.72;;;27.77;35.50
38303;BME280;24103;42.454;27.400;2023-05-19T08:40:49;100533.69;;;27.52;35.69
38303;BME280;24103;42.454;27.400;2023-05-19T08:43:15;100537.13;;;27.74;35.41
38303;BME280;24103;42.454;27.400;2023-05-19T08:45:42;100529.41;;;27.78;34.80
38303;BME280;24103;42.454;27.400;2023-05-19T08:48:09;100530.47;;;27.77;36.39
38303;BME280;24103;42.454;27.400;2023-05-19T08:50:39;100533.47;;;27.47;36.87
38303;BME280;24103;42.454;27.400;2023-05-19T08:53:28;100530.56;;;27.27;37.94
38303;BME280;24103;42.454;27.400;2023-05-19T08:56:05;100547.59;;;27.77;38.24
38303;BME280;24103;42.454;27.400;2023-05-19T08:58:39;100553.31;;;27.54;37.54
38303;BME280;24103;42.454;27.400;2023-05-19T09:01:07;100548.16;;;27.03;38.88
38303;BME280;24103;42.454;27.400;2023-05-19T09:03:33;100556.75;;;27.35;39.04
38303;BME280;24103;42.454;27.400;2023-05-19T09:06:06;100552.72;;;27.59;40.01
38303;BME280;24103;42.454;27.400;2023-05-19T09:08:37;100564.69;;;27.36;39.52
38303;BME280;24103;42.454;27.400;2023-05-19T09:11:02;100582.41;;;26.82;42.92
38303;BME280;24103;42.454;27.400;2023-05-19T09:13:28;100581.66;;;26.30;43.55
38303;BME280;24103;42.454;27.400;2023-05-19T09:15:55;100596.13;;;26.23;44.47
38303;BME280;24103;42.454;27.400;2023-05-19T09:18:23;100591.19;;;26.48;44.23
38303;BME280;24103;42.454;27.400;2023-05-19T09:20:49;100595.88;;;26.18;44.22
38303;BME280;24103;42.454;27.400;2023-05-19T09:23:16;100610.44;;;25.57;45.49
38303;BME280;24103;42.454;27.400;2023-05-19T09:25:51;100605.09;;;24.96;48.96
38303;BME280;24103;42.454;27.400;2023-05-19T09:28:30;100606.78;;;24.97;49.29
38303;BME280;24103;42.454;27.400;2023-05-19T09:31:04;100614.59;;;24.92;50.83
38303;BME280;24103;42.454;27.400;2023-05-19T09:33:33;100607.47;;;24.13;53.55
38303;BME280;24103;42.454;27.400;2023-05-19T09:35:59;100607.59;;;24.20;54.21
38303;BME280;24103;42.454;27.400;2023-05-19T09:38:32;100616.19;;;23.67;61.00
38303;BME280;24103;42.454;27.400;2023-05-19T09:40:59;100613.28;;;23.94;61.21
38303;BME280;24103;42.454;27.400;2023-05-19T09:43:31;100623.44;;;23.83;59.14
38303;BME280;24103;42.454;27.400;2023-05-19T09:46:08;100618.03;;;23.75;63.14
38303;BME280;24103;42.454;27.400;2023-05-19T09:48:35;100614.56;;;23.58;64.88
38303;BME280;24103;42.454;27.400;2023-05-19T09:51:06;100628.13;;;23.81;64.59
38303;BME280;24103;42.454;27.400;2023-05-19T09:53:33;100606.41;;;23.74;60.93
38303;BME280;24103;42.454;27.400;2023-05-19T09:56:00;100616.97;;;23.20;64.56
38303;BME280;24103;42.454;27.400;2023-05-19T09:58:30;100631.06;;;22.73;66.58
38303;BME280;24103;42.454;27.400;2023-05-19T10:00:57;100632.00;;;22.39;69.22
38303;BME280;24103;42.454;27.400;2023-05-19T10:03:24;100641.34;;;22.77;71.01
38303;BME280;24103;42.454;27.400;2023-05-19T10:05:52;100622.34;;;22.95;70.57
38303;BME280;24103;42.454;27.400;2023-05-19T10:08:17;100637.63;;;23.03;69.34
38303;BME280;24103;42.454;27.400;2023-05-19T10:10:47;100627.44;;;23.15;69.25
38303;BME280;24103;42.454;27.400;2023-05-19T10:13:12;100641.41;;;23.18;69.81
38303;BME280;24103;42.454;27.400;2023-05-19T10:15:41;100642.91;;;23.29;69.85
38303;BME280;24103;42.454;27.400;2023-05-19T10:18:10;100636.00;;;23.18;70.05
38303;BME280;24103;42.454;27.400;2023-05-19T10:20:36;100641.88;;;22.97;70.29
38303;BME280;24103;42.454;27.400;2023-05-19T10:23:02;100641.19;;;22.95;70.96
38303;BME280;24103;42.454;27.400;2023-05-19T10:25:30;100644.06;;;22.86;74.06
38303;BME280;24103;42.454;27.400;2023-05-19T10:28:02;100650.13;;;22.96;73.78
38303;BME280;24103;42.454;27.400;2023-05-19T10:30:35;100656.59;;;22.44;74.48
38303;BME280;24103;42.454;27.400;2023-05-19T10:33:03;100658.72;;;22.32;75.75
38303;BME280;24103;42.454;27.400;2023-05-19T10:38:42;100647.03;;;22.15;76.87
38303;BME280;24103;42.454;27.400;2023-05-19T10:41:18;100653.03;;;22.09;77.71
38303;BME280;24103;42.454;27.400;2023-05-19T10:44:19;100649.13;;;21.95;80.27
38303;BME280;24103;42.454;27.400;2023-05-19T10:46:47;100642.72;;;21.88;80.45
38303;BME280;24103;42.454;27.400;2023-05-19T10:49:22;100650.97;;;21.95;81.40
38303;BME280;24103;42.454;27.400;2023-05-19T10:51:48;100662.50;;;22.13;77.58
38303;BME280;24103;42.454;27.400;2023-05-19T10:54:14;100647.28;;;22.30;80.83
38303;BME280;24103;42.454;27.400;2023-05-19T10:56:42;100646.72;;;22.18;76.46
38303;BME280;24103;42.454;27.400;2023-05-19T10:59:40;100644.53;;;22.22;79.70
38303;BME280;24103;42.454;27.400;2023-05-19T11:02:07;100643.97;;;22.44;81.43
38303;BME280;24103;42.454;27.400;2023-05-19T11:04:45;100655.03;;;22.33;75.13
38303;BME280;24103;42.454;27.400;2023-05-19T11:07:21;100663.63;;;22.02;77.78
38303;BME280;24103;42.454;27.400;2023-05-19T11:09:50;100656.75;;;21.74;81.89
38303;BME280;24103;42.454;27.400;2023-05-19T11:12:20;100646.72;;;21.84;81.90
38303;BME280;24103;42.454;27.400;2023-05-19T11:14:51;100654.72;;;22.02;80.02
38303;BME280;24103;42.454;27.400;2023-05-19T11:17:18;100663.47;;;21.78;80.57
38303;BME280;24103;42.454;27.400;2023-05-19T11:19:56;100648.44;;;21.93;79.46
38303;BME280;24103;42.454;27.400;2023-05-19T11:22:26;100657.19;;;21.95;79.24
38303;BME280;24103;42.454;27.400;2023-05-19T11:24:54;100640.28;;;21.77;80.18
38303;BME280;24103;42.454;27.400;2023-05-19T11:27:28;100681.56;;;21.94;78.29
38303;BME280;24103;42.454;27.400;2023-05-19T11:32:34;100663.94;;;21.47;79.84
38303;BME280;24103;42.454;27.400;2023-05-19T11:35:00;100653.91;;;21.49;82.49
38303;BME280;24103;42.454;27.400;2023-05-19T11:37:27;100658.41;;;21.66;80.77
38303;BME280;24103;42.454;27.400;2023-05-19T11:39:56;100664.66;;;21.31;82.82
38303;BME280;24103;42.454;27.400;2023-05-19T11:42:22;100666.50;;;21.30;84.96
38303;BME280;24103;42.454;27.400;2023-05-19T11:44:48;100659.06;;;21.24;85.96
38303;BME280;24103;42.454;27.400;2023-05-19T11:47:15;100658.66;;;21.37;86.03
38303;BME280;24103;42.454;27.400;2023-05-19T11:49:46;100666.34;;;21.50;88.63
38303;BME280;24103;42.454;27.400;2023-05-19T11:52:12;100653.13;;;21.57;84.64
38303;BME280;24103;42.454;27.400;2023-05-19T11:54:38;100666.41;;;21.40;83.57
38303;BME280;24103;42.454;27.400;2023-05-19T11:57:07;100671.00;;;21.30;89.03
38303;BME280;24103;42.454;27.400;2023-05-19T11:59:34;100657.84;;;21.45;85.73
38303;BME280;24103;42.454;27.400;2023-05-19T12:02:01;100653.94;;;21.57;86.35
38303;BME280;24103;42.454;27.400;2023-05-19T12:04:30;100664.81;;;21.74;84.66
38303;BME280;24103;42.454;27.400;2023-05-19T12:06:56;100672.09;;;21.55;82.63
38303;BME280;24103;42.454;27.400;2023-05-19T12:09:22;100651.53;;;21.28;85.05
38303;BME280;24103;42.454;27.400;2023-05-19T12:11:50;100662.72;;;21.23;86.53
38303;BME280;24103;42.454;27.400;2023-05-19T12:14:17;100661.34;;;21.37;84.30
38303;BME280;24103;42.454;27.400;2023-05-19T12:16:42;100670.47;;;21.44;84.24
38303;BME280;24103;42.454;27.400;2023-05-19T12:19:08;100662.13;;;21.74;82.50
38303;BME280;24103;42.454;27.400;2023-05-19T12:21:34;100655.22;;;21.71;81.07
38303;BME280;24103;42.454;27.400;2023-05-19T12:24:00;100662.69;;;21.59;79.60
38303;BME280;24103;42.454;27.400;2023-05-19T12:26:26;100655.28;;;21.35;80.85
38303;BME280;24103;42.454;27.400;2023-05-19T12:28:51;100649.69;;;21.28;82.32
38303;BME280;24103;42.454;27.400;2023-05-19T12:31:18;100642.72;;;21.62;83.17
38303;BME280;24103;42.454;27.400;2023-05-19T12:33:48;100654.56;;;21.77;82.63
38303;BME280;24103;42.454;27.400;2023-05-19T12:36:17;100643.31;;;21.47;79.19
38303;BME280;24103;42.454;27.400;2023-05-19T12:38:43;100651.38;;;21.47;80.46
38303;BME280;24103;42.454;27.400;2023-05-19T12:41:11;100647.69;;;21.48;83.31
38303;BME280;24103;42.454;27.400;2023-05-19T12:43:37;100647.75;;;21.39;81.39
38303;BME280;24103;42.454;27.400;2023-05-19T12:46:12;100659.66;;;21.36;80.92
38303;BME280;24103;42.454;27.400;2023-05-19T12:48:44;100648.69;;;21.29;81.22
38303;BME280;24103;42.454;27.400;2023-05-19T12:51:21;100648.63;;;21.21;82.56
38303;BME280;24103;42.454;27.400;2023-05-19T12:53:49;100645.41;;;21.17;83.37
38303;BME280;24103;42.454;27.400;2023-05-19T12:56:14;100652.78;;;21.15;83.18
38303;BME280;24103;42.454;27.400;2023-05-19T12:58:41;100650.63;;;21.01;84.34